Time;durP1;ratioP1;P1;durP2;ratioP2;P2;SDS_P1;SDS_P2;PMS_P1;PMS_P2;Temp;Humidity;BMP_temperature;BMP_pressure;BME280_temperature;BME280_humidity;BME280_pressure;Samples;Min_cycle;Max_cycle;Signal;HPM_P1;HPM_P2
2022/05/20 00:00:40;;;;;;;1999.90;999.90;;;;;;;18.87;100.00;95900.78;5097202;28;20187;-59
2022/05/20 00:03:05;;;;;;;1999.90;999.90;;;;;;;18.87;100.00;95900.78;5096589;28;20208;-58
2022/05/20 00:05:31;;;;;;;1999.90;999.90;;;;;;;18.73;100.00;95915.06;5097159;28;20284;-63
2022/05/20 00:07:57;;;;;;;1999.90;999.90;;;;;;;18.72;100.00;95919.06;5096556;28;20274;-62
2022/05/20 00:10:23;;;;;;;1999.90;999.90;;;;;;;18.70;100.00;95910.41;5096645;28;20180;-63
2022/05/20 00:12:49;;;;;;;1999.90;999.90;;;;;;;18.62;100.00;95920.16;5096281;28;20191;-63
2022/05/20 00:15:18;;;;;;;1999.90;999.90;;;;;;;18.58;100.00;95919.50;5096733;28;20191;-62
2022/05/20 00:17:44;;;;;;;1999.90;999.90;;;;;;;18.64;100.00;95928.78;5114103;28;20272;-65
2022/05/20 00:20:13;;;;;;;1999.90;999.90;;;;;;;18.70;100.00;95921.50;5096246;28;20188;-64
2022/05/20 00:22:38;;;;;;;1999.90;999.90;;;;;;;18.69;100.00;95919.94;5096452;28;20183;-60
2022/05/20 00:28:08;;;;;;;1999.90;999.90;;;;;;;18.75;100.00;95923.69;5032319;28;20194;-61
2022/05/20 00:30:34;;;;;;;1999.90;999.90;;;;;;;18.70;100.00;95927.03;5031913;28;20190;-61
2022/05/20 00:33:00;;;;;;;1999.90;999.90;;;;;;;18.71;100.00;95928.56;5063537;28;20203;-62
2022/05/20 00:35:26;;;;;;;1999.90;999.90;;;;;;;18.76;100.00;95925.25;5096635;28;20190;-61
2022/05/20 00:37:52;;;;;;;1999.90;999.90;;;;;;;18.69;100.00;95903.34;5096420;28;20187;-60
2022/05/20 00:40:22;;;;;;;1999.90;999.90;;;;;;;18.56;100.00;95906.09;5096097;28;20206;-54
2022/05/20 00:42:48;;;;;;;1999.90;999.90;;;;;;;18.59;100.00;95904.44;5096108;28;20247;-60
2022/05/20 00:45:15;;;;;;;1999.90;999.90;;;;;;;18.58;100.00;95905.66;5096040;28;20302;-61
2022/05/20 00:47:42;;;;;;;1999.90;999.90;;;;;;;18.56;100.00;95911.66;5096128;28;20184;-61
2022/05/20 00:50:15;;;;;;;1999.90;999.90;;;;;;;18.58;100.00;95897.38;5095970;28;20192;-60
2022/05/20 00:52:47;;;;;;;1999.90;999.90;;;;;;;18.55;100.00;95903.78;5095986;28;20184;-61
2022/05/20 00:55:16;;;;;;;1999.90;999.90;;;;;;;18.47;100.00;95891.38;5096536;28;20192;-61
2022/05/20 00:57:55;;;;;;;1999.90;999.90;;;;;;;18.39;100.00;95885.28;5095851;28;20192;-62
2022/05/20 01:00:25;;;;;;;1999.90;999.90;;;;;;;18.36;100.00;95888.19;5095785;28;20188;-62
2022/05/20 01:02:54;;;;;;;1999.90;999.90;;;;;;;18.38;100.00;95894.03;5095728;28;20192;-59
2022/05/20 01:05:27;;;;;;;1999.90;999.90;;;;;;;18.41;100.00;95893.16;5095880;28;20203;-59
2022/05/20 01:07:54;;;;;;;1999.90;999.90;;;;;;;18.42;100.00;95886.38;5095939;28;20211;-59
2022/05/20 01:10:19;;;;;;;1999.90;999.90;;;;;;;18.36;100.00;95877.09;5099377;28;20259;-58
2022/05/20 01:12:45;;;;;;;1999.90;999.90;;;;;;;18.34;100.00;95885.81;5099846;28;20222;-59
2022/05/20 01:15:11;;;;;;;1999.90;999.90;;;;;;;18.23;100.00;95888.13;5099234;28;20232;-59
2022/05/20 01:17:38;;;;;;;1999.90;999.90;;;;;;;18.26;100.00;95870.66;5099317;28;20208;-63
2022/05/20 01:20:08;;;;;;;1999.90;999.90;;;;;;;18.24;100.00;95861.22;5099530;28;20184;-63
2022/05/20 01:22:45;;;;;;;1999.90;999.90;;;;;;;18.25;100.00;95862.81;5099249;28;20199;-77
2022/05/20 01:25:11;;;;;;;1999.90;999.90;;;;;;;18.23;100.00;95870.75;5099460;28;20211;-77
2022/05/20 01:27:42;;;;;;;1999.90;999.90;;;;;;;18.22;100.00;95869.22;5099439;28;20179;-76
2022/05/20 01:30:10;;;;;;;1999.90;999.90;;;;;;;18.20;100.00;95875.19;5099399;28;20217;-75
2022/05/20 01:32:35;;;;;;;1999.90;999.90;;;;;;;18.22;100.00;95874.75;5099149;28;20184;-77
2022/05/20 01:35:02;;;;;;;1999.90;999.90;;;;;;;18.22;100.00;95877.50;5098807;28;20176;-75
2022/05/20 01:37:27;;;;;;;1999.90;999.90;;;;;;;18.20;100.00;95871.63;5098983;28;20186;-62
2022/05/20 01:39:53;;;;;;;1999.90;999.90;;;;;;;18.21;100.00;95867.66;5098990;28;20187;-59
2022/05/20 01:42:29;;;;;;;1999.90;999.90;;;;;;;18.19;100.00;95870.88;5098968;28;20184;-60
2022/05/20 01:45:14;;;;;;;1999.90;999.90;;;;;;;18.15;100.00;95874.94;5099051;28;20183;-60
2022/05/20 01:47:47;;;;;;;1999.90;999.90;;;;;;;18.19;100.00;95870.88;5099266;28;20274;-60
2022/05/20 01:50:20;;;;;;;1999.90;999.90;;;;;;;18.16;100.00;95871.75;5098581;28;20190;-59
2022/05/20 01:52:59;;;;;;;1999.90;999.90;;;;;;;18.16;100.00;95859.91;5098659;28;20175;-60
2022/05/20 01:55:33;;;;;;;1999.90;999.90;;;;;;;18.09;100.00;95855.38;5098690;28;20172;-60
2022/05/20 01:58:11;;;;;;;1999.90;999.90;;;;;;;18.09;100.00;95849.84;5098541;28;20180;-59
2022/05/20 02:00:39;;;;;;;1999.90;999.90;;;;;;;18.11;100.00;95850.19;5099027;28;20179;-59
2022/05/20 02:03:29;;;;;;;1999.90;999.90;;;;;;;18.10;100.00;95845.09;5098600;28;20179;-59
2022/05/20 02:06:00;;;;;;;1999.90;999.90;;;;;;;18.06;100.00;95841.66;5098563;28;20203;-59
2022/05/20 02:08:28;;;;;;;1999.90;999.90;;;;;;;18.07;100.00;95834.91;5098346;28;20187;-59
2022/05/20 02:11:01;;;;;;;1999.90;999.90;;;;;;;17.97;100.00;95831.25;5098351;28;20184;-59
2022/05/20 02:13:31;;;;;;;1999.90;999.90;;;;;;;17.95;100.00;95832.91;5098953;28;20182;-65
2022/05/20 02:16:15;;;;;;;1999.90;999.90;;;;;;;17.96;100.00;95817.88;5116077;28;20188;-60
2022/05/20 02:19:08;;;;;;;1999.90;999.90;;;;;;;17.90;100.00;95825.94;5098718;28;20270;-61
2022/05/20 02:21:40;;;;;;;1999.90;999.90;;;;;;;17.88;100.00;95816.53;5097545;28;20221;-61
2022/05/20 02:24:10;;;;;;;1999.90;999.90;;;;;;;17.85;100.00;95817.41;5098580;28;20241;-61
2022/05/20 02:26:43;;;;;;;1999.90;999.90;;;;;;;17.83;100.00;95819.81;5097940;28;20203;-61
2022/05/20 02:29:13;;;;;;;1999.90;999.90;;;;;;;17.82;100.00;95818.28;5098320;28;20245;-61
2022/05/20 02:31:54;;;;;;;1999.90;999.90;;;;;;;17.77;100.00;95814.06;5098684;28;20188;-60
2022/05/20 02:34:19;;;;;;;1999.90;999.90;;;;;;;17.75;100.00;95818.50;5098175;28;20209;-66
2022/05/20 02:36:45;;;;;;;1999.90;999.90;;;;;;;17.73;100.00;95810.63;5098309;28;20196;-66
2022/05/20 02:39:16;;;;;;;1999.90;999.90;;;;;;;17.72;100.00;95814.63;5098287;28;20275;-66
2022/05/20 02:41:44;;;;;;;1999.90;999.90;;;;;;;17.67;100.00;95817.16;5098009;28;20202;-66
2022/05/20 02:44:09;;;;;;;1999.90;999.90;;;;;;;17.64;100.00;95818.00;5098282;28;20180;-67
2022/05/20 02:46:36;;;;;;;1999.90;999.90;;;;;;;17.63;100.00;95808.19;5098188;28;20207;-66
2022/05/20 02:49:02;;;;;;;1999.90;999.90;;;;;;;17.61;100.00;95816.13;5098037;28;20191;-60
2022/05/20 02:51:27;;;;;;;1999.90;999.90;;;;;;;17.55;100.00;95815.13;5097867;28;20195;-60
2022/05/20 02:53:53;;;;;;;1999.90;999.90;;;;;;;17.54;100.00;95813.56;5097816;28;20188;-59
2022/05/20 02:56:18;;;;;;;1999.90;999.90;;;;;;;17.51;100.00;95817.19;5098415;28;20180;-58
2022/05/20 03:04:11;;;;;;;1999.90;999.90;;;;;;;17.45;100.00;95808.66;5116204;28;20195;-59
2022/05/20 03:06:46;;;;;;;1999.90;999.90;;;;;;;17.38;100.00;95816.38;5097735;28;20200;-59
2022/05/20 03:09:14;;;;;;;1999.90;999.90;;;;;;;17.39;100.00;95812.38;5097665;28;20187;-65
2022/05/20 03:11:40;;;;;;;1999.90;999.90;;;;;;;17.39;100.00;95812.38;5097251;28;20187;-60
2022/05/20 03:14:08;;;;;;;1999.90;999.90;;;;;;;17.36;100.00;95816.78;5097439;28;20184;-61
2022/05/20 03:16:35;;;;;;;1999.90;999.90;;;;;;;17.38;100.00;95819.13;5097055;28;20211;-60
2022/05/20 03:19:00;;;;;;;1999.90;999.90;;;;;;;17.36;100.00;95821.53;5097023;28;20195;-60
2022/05/20 03:21:26;;;;;;;1999.90;999.90;;;;;;;17.34;100.00;95812.94;5097435;28;20188;-61
2022/05/20 03:23:52;;;;;;;1999.90;999.90;;;;;;;17.33;100.00;95814.16;5097317;28;20203;-60
2022/05/20 03:26:18;;;;;;;1999.90;999.90;;;;;;;17.34;100.00;95812.94;5097274;28;20196;-76
2022/05/20 03:28:45;;;;;;;1999.90;999.90;;;;;;;17.33;100.00;95814.16;5097068;28;20191;-59
2022/05/20 03:31:12;;;;;;;1999.90;999.90;;;;;;;17.35;100.00;95817.22;5096569;28;20194;-62
2022/05/20 03:33:38;;;;;;;1999.90;999.90;;;;;;;17.34;100.00;95816.44;5096662;28;20195;-62
2022/05/20 03:36:04;;;;;;;1999.90;999.90;;;;;;;17.32;100.00;95815.34;5096751;28;20188;-63
2022/05/20 03:38:30;;;;;;;1999.90;999.90;;;;;;;17.33;100.00;95817.66;5096765;28;20180;-63
2022/05/20 03:40:56;;;;;;;1999.90;999.90;;;;;;;17.31;100.00;95817.34;5097438;28;20180;-63
2022/05/20 03:43:22;;;;;;;1999.90;999.90;;;;;;;17.35;100.00;95811.72;5096941;28;20191;-63
2022/05/20 03:45:47;;;;;;;1999.90;999.90;;;;;;;17.34;100.00;95810.16;5097231;28;20200;-62
2022/05/20 03:48:13;;;;;;;1999.90;999.90;;;;;;;17.38;100.00;95810.84;5097470;28;20188;-59
2022/05/20 03:50:39;;;;;;;1999.90;999.90;;;;;;;17.49;100.00;95812.13;5096728;28;20188;-60
2022/05/20 03:53:04;;;;;;;1999.90;999.90;;;;;;;17.60;100.00;95817.34;5096722;28;20180;-59
2022/05/20 03:55:29;;;;;;;1999.90;999.90;;;;;;;17.80;100.00;95821.47;5097407;28;20190;-59
2022/05/20 03:57:55;;;;;;;1999.90;999.90;;;;;;;18.12;100.00;95815.00;5096653;28;20191;-59
2022/05/20 04:00:21;;;;;;;1999.90;999.90;;;;;;;18.40;100.00;95819.69;5096708;28;20180;-59
2022/05/20 04:02:46;;;;;;;1999.90;999.90;;;;;;;18.68;100.00;95824.28;5096739;28;20236;-54
2022/05/20 04:05:12;;;;;;;1999.90;999.90;;;;;;;19.03;100.00;95836.97;5096170;28;20235;-64
2022/05/20 04:07:38;;;;;;;1999.90;999.90;;;;;;;19.34;100.00;95832.38;5096723;28;20187;-61
2022/05/20 04:10:08;;;;;;;1999.90;999.90;;;;;;;19.48;100.00;95832.63;5096472;28;20190;-60
2022/05/20 04:12:43;;;;;;;1999.90;999.90;;;;;;;19.78;100.00;95833.16;5096306;28;20209;-60
2022/05/20 04:15:12;;;;;;;1999.90;999.90;;;;;;;19.99;100.00;95849.78;5097027;28;20192;-60
2022/05/20 04:17:38;;;;;;;1999.90;999.90;;;;;;;20.13;100.00;95854.03;5096295;28;20282;-62
2022/05/20 04:20:06;;;;;;;1999.90;999.90;;;;;;;20.34;100.00;95859.56;5096502;28;20215;-62
2022/05/20 04:22:34;;;;;;;1999.90;999.90;;;;;;;20.67;100.00;95855.09;5096779;28;20186;-59
2022/05/20 04:25:00;;;;;;;1999.90;999.90;;;;;;;20.94;100.00;95873.88;5096065;28;20179;-54
2022/05/20 04:27:29;;;;;;;1999.90;999.90;;;;;;;21.13;100.00;95876.22;5096142;28;20180;-54
2022/05/20 04:29:55;;;;;;;1999.90;999.90;;;;;;;21.40;100.00;95873.50;5096055;28;20175;-55
2022/05/20 04:32:21;;;;;;;1999.90;999.90;;;;;;;21.67;100.00;95881.84;5096074;28;20176;-56
2022/05/20 04:34:46;;;;;;;1999.90;999.90;;;;;;;21.84;100.00;95879.56;5096232;28;20176;-55
2022/05/20 04:37:13;;;;;;;1999.90;999.90;;;;;;;21.99;100.00;95886.81;5096062;28;20195;-56
2022/05/20 04:39:39;;;;;;;1999.90;999.90;;;;;;;22.07;100.00;95879.69;5096030;28;20182;-60
2022/05/20 04:47:33;;;;;;;1999.90;999.90;;;;;;;22.73;100.00;95891.00;5118002;28;20187;-60
2022/05/20 04:49:59;;;;;;;1999.90;999.90;;;;;;;22.81;100.00;95895.00;5099991;28;20188;-60
2022/05/20 04:52:25;;;;;;;1999.90;999.90;;;;;;;22.89;100.00;95896.97;5099723;28;20188;-60
2022/05/20 04:54:52;;;;;;;1999.90;999.90;;;;;;;23.01;100.00;95906.38;5117416;28;20197;-60
2022/05/20 04:57:33;;;;;;;1999.90;999.90;;;;;;;22.93;100.00;95902.34;5099508;28;20237;-61
2022/05/20 05:00:11;;;;;;;1999.90;999.90;;;;;;;22.75;100.00;95905.22;5099733;28;20184;-70
2022/05/20 05:02:37;;;;;;;1999.90;999.90;;;;;;;22.57;100.00;95908.09;5099598;28;20183;-63
2022/05/20 05:05:05;;;;;;;1999.90;999.90;;;;;;;22.60;100.00;95907.13;5099360;28;20182;-65
2022/05/20 05:07:31;;;;;;;1999.90;999.90;;;;;;;22.67;100.00;95901.22;5099311;28;20175;-63
2022/05/20 05:09:58;;;;;;;1999.90;999.90;;;;;;;22.91;100.00;95899.28;5099234;28;20184;-63
2022/05/20 05:12:23;;;;;;;1999.90;999.90;;;;;;;23.20;100.00;95907.81;5099031;28;20184;-63
2022/05/20 05:14:51;;;;;;;1999.90;999.90;;;;;;;23.62;100.00;95908.50;5099564;28;20176;-63
2022/05/20 05:20:09;;;;;;;1999.90;999.90;;;;;;;24.33;100.00;95921.13;5117620;28;20194;-60
2022/05/20 05:22:34;;;;;;;1999.90;999.90;;;;;;;24.60;100.00;95925.66;5099292;28;20184;-60
2022/05/20 05:25:00;;;;;;;1999.90;999.90;;;;;;;24.92;100.00;95924.72;5099200;28;20184;-60
2022/05/20 05:27:26;;;;;;;1999.90;999.90;;;;;;;25.11;100.00;95926.03;5098994;28;20180;-60
2022/05/20 05:29:51;;;;;;;1999.90;999.90;;;;;;;25.31;97.20;95918.50;5098637;28;20187;-60
2022/05/20 05:32:16;;;;;;;1999.90;999.90;;;;;;;25.69;95.01;95920.28;5098741;28;20184;-59
2022/05/20 05:34:41;;;;;;;1999.90;999.90;;;;;;;26.07;90.65;95925.63;5098795;28;20180;-62
2022/05/20 05:37:07;;;;;;;1999.90;999.90;;;;;;;26.40;88.39;95923.19;5099040;28;20183;-57
2022/05/20 05:39:32;;;;;;;1999.90;999.90;;;;;;;26.72;85.61;95919.19;5098698;28;20191;-62
2022/05/20 05:42:00;;;;;;;1999.90;999.90;;;;;;;27.12;83.33;95913.41;5098700;28;20176;-62
2022/05/20 05:44:26;;;;;;;1999.90;999.90;;;;;;;27.48;81.14;95909.88;5098972;28;20184;-60
2022/05/20 05:46:51;;;;;;;1999.90;999.90;;;;;;;28.23;75.93;95912.78;5098616;28;20206;-61
2022/05/20 05:49:16;;;;;;;1999.90;999.90;;;;;;;28.86;71.94;95918.03;5098818;28;20191;-61
2022/05/20 05:51:42;;;;;;;1999.90;999.90;;;;;;;28.78;69.80;95922.63;5098105;28;20207;-62
2022/05/20 05:54:08;;;;;;;1999.90;999.90;;;;;;;28.77;70.91;95921.09;5098460;28;20207;-60
2022/05/20 05:56:33;;;;;;;1999.90;999.90;;;;;;;28.70;70.67;95915.97;5097681;28;20271;-57
2022/05/20 05:58:58;;;;;;;1999.90;999.90;;;;;;;28.91;68.83;95923.66;5098463;28;20176;-56
2022/05/20 06:01:23;;;;;;;1999.90;999.90;;;;;;;29.43;67.74;95909.84;5098339;28;20188;-57
2022/05/20 06:03:49;;;;;;;1999.90;999.90;;;;;;;29.79;65.04;95917.97;5098511;28;20176;-56
2022/05/20 06:06:14;;;;;;;1999.90;999.90;;;;;;;30.26;64.84;95913.22;5098164;28;20207;-56
2022/05/20 06:08:39;;;;;;;1999.90;999.90;;;;;;;30.67;61.35;95914.75;5098210;28;20188;-56
2022/05/20 06:11:06;;;;;;;1999.90;999.90;;;;;;;31.23;58.19;95926.41;5098344;28;20183;-60
2022/05/20 06:13:32;;;;;;;1999.90;999.90;;;;;;;31.60;56.95;95923.78;5098827;28;20211;-61
2022/05/20 06:15:57;;;;;;;1999.90;999.90;;;;;;;31.76;54.31;95928.53;5098084;28;20192;-64
2022/05/20 06:18:24;;;;;;;1999.90;999.90;;;;;;;32.29;52.95;95933.31;5098219;28;20210;-63
2022/05/20 06:20:50;;;;;;;1999.90;999.90;;;;;;;32.65;51.33;95923.34;5098005;28;20183;-62
2022/05/20 06:23:16;;;;;;;1999.90;999.90;;;;;;;32.86;49.80;95924.34;5098744;28;20182;-62
2022/05/20 06:25:42;;;;;;;1999.90;999.90;;;;;;;33.11;48.82;95924.97;5097922;28;20282;-65
2022/05/20 06:28:11;;;;;;;1999.90;999.90;;;;;;;33.04;47.85;95931.28;5115982;28;20191;-66
2022/05/20 06:30:38;;;;;;;1999.90;999.90;;;;;;;32.83;48.29;95925.41;5098038;28;20186;-56
2022/05/20 06:33:04;;;;;;;1999.90;999.90;;;;;;;33.53;44.66;95927.63;5098571;28;20190;-57
2022/05/20 06:40:59;;;;;;;1999.90;999.90;;;;;;;33.66;44.99;95922.00;5116620;28;20202;-56
2022/05/20 06:43:26;;;;;;;1999.90;999.90;;;;;;;33.75;44.16;95927.22;5098155;28;20184;-56
2022/05/20 06:45:56;;;;;;;1999.90;999.90;;;;;;;33.93;43.23;95922.03;5097592;28;20204;-57
2022/05/20 06:48:21;;;;;;;1999.90;999.90;;;;;;;34.37;41.96;95930.41;5097718;28;20274;-56
2022/05/20 06:50:47;;;;;;;1999.90;999.90;;;;;;;34.89;40.39;95918.22;5097635;28;20215;-62
2022/05/20 06:53:13;;;;;;;1999.90;999.90;;;;;;;35.23;40.03;95921.78;5098015;28;20183;-61
2022/05/20 06:55:38;;;;;;;1999.90;999.90;;;;;;;35.61;39.12;95925.75;5098122;28;20274;-60
2022/05/20 06:58:04;;;;;;;1999.90;999.90;;;;;;;36.47;37.22;95925.97;5097305;28;20186;-61
2022/05/20 07:00:29;;;;;;;1999.90;999.90;;;;;;;36.08;36.48;95923.44;5097193;28;20175;-58
2022/05/20 07:02:54;;;;;;;1999.90;999.90;;;;;;;35.63;37.86;95928.78;5097532;28;20180;-60
2022/05/20 07:05:20;;;;;;;1999.90;999.90;;;;;;;36.30;36.99;95922.84;5097633;28;20202;-60
2022/05/20 07:07:46;;;;;;;1999.90;999.90;;;;;;;36.70;36.05;95924.00;5097057;28;20175;-59
2022/05/20 07:10:13;;;;;;;1999.90;999.90;;;;;;;36.71;35.78;95922.69;5097562;28;20186;-65
2022/05/20 07:12:39;;;;;;;1999.90;999.90;;;;;;;37.29;34.70;95913.34;5115024;28;20316;-63
2022/05/20 07:15:05;;;;;;;1999.90;999.90;;;;;;;37.81;34.32;95921.19;5098000;28;20204;-62
2022/05/20 07:17:31;;;;;;;1999.90;999.90;;;;;;;38.28;32.90;95913.53;5097365;28;20252;-62
2022/05/20 07:19:56;;;;;;;1999.90;999.90;;;;;;;37.84;33.00;95912.25;5097566;28;20187;-62
2022/05/20 07:22:22;;;;;;;1999.90;999.90;;;;;;;38.07;33.58;95913.00;5097123;28;20184;-61
2022/05/20 07:24:47;;;;;;;1999.90;999.90;;;;;;;38.28;32.08;95907.81;5097259;28;20215;-54
2022/05/20 07:27:13;;;;;;;1999.90;999.90;;;;;;;37.96;32.11;95907.66;5096942;28;20294;-59
2022/05/20 07:29:39;;;;;;;1999.90;999.90;;;;;;;38.41;31.62;95901.84;5097072;28;20187;-60
2022/05/20 07:32:05;;;;;;;1999.90;999.90;;;;;;;38.35;31.88;95907.00;5097041;28;20215;-60
2022/05/20 07:34:31;;;;;;;1999.90;999.90;;;;;;;38.98;30.76;95907.75;5097042;28;20172;-60
2022/05/20 07:36:56;;;;;;;1999.90;999.90;;;;;;;38.85;29.93;95910.84;5097108;28;20187;-60
2022/05/20 07:39:21;;;;;;;1999.90;999.90;;;;;;;39.29;30.09;95909.81;5097056;28;20224;-60
2022/05/20 07:41:47;;;;;;;1999.90;999.90;;;;;;;39.45;29.62;95912.59;5096770;28;20184;-61
2022/05/20 07:44:12;;;;;;;1999.90;999.90;;;;;;;39.64;28.64;95901.38;5096936;28;20175;-61
2022/05/20 07:46:38;;;;;;;1999.90;999.90;;;;;;;39.47;28.97;95907.06;5114515;28;20257;-62
2022/05/20 07:49:03;;;;;;;1999.90;999.90;;;;;;;39.14;28.47;95901.34;5096765;28;20180;-62
2022/05/20 07:51:31;;;;;;;1999.90;999.90;;;;;;;39.19;29.33;95896.75;5096610;28;20180;-62
2022/05/20 07:54:02;;;;;;;1999.90;999.90;;;;;;;39.90;27.93;95897.97;5096772;28;20218;-62
2022/05/20 07:56:32;;;;;;;1999.90;999.90;;;;;;;39.33;27.79;95909.44;5097148;28;20180;-62
2022/05/20 07:59:30;;;;;;;1999.90;999.90;;;;;;;40.01;27.09;95897.47;5096931;28;20219;-62
2022/05/20 08:01:56;;;;;;;1999.90;999.90;;;;;;;39.68;27.31;95899.63;5090986;28;20321;-59
2022/05/20 08:07:15;;;;;;;1999.90;999.90;;;;;;;40.42;26.66;95905.25;5114321;28;20252;-62
2022/05/20 08:09:40;;;;;;;1999.90;999.90;;;;;;;40.26;26.97;95901.03;5096224;28;20184;-62
2022/05/20 08:12:06;;;;;;;1999.90;999.90;;;;;;;39.14;26.68;95897.72;5096220;28;20186;-62
2022/05/20 08:14:32;;;;;;;1999.90;999.90;;;;;;;38.84;27.96;95892.16;5096434;28;20187;-62
2022/05/20 08:16:59;;;;;;;1999.90;999.90;;;;;;;39.45;26.96;95886.84;5096231;28;20310;-61
2022/05/20 08:19:25;;;;;;;1999.90;999.90;;;;;;;39.71;26.18;95880.53;5095606;28;20206;-60
2022/05/20 08:21:50;;;;;;;1999.90;999.90;;;;;;;40.46;24.91;95885.53;5096383;28;20241;-56
2022/05/20 08:24:16;;;;;;;1999.90;999.90;;;;;;;39.48;25.73;95879.97;5114362;28;20250;-65
2022/05/20 08:26:41;;;;;;;1999.90;999.90;;;;;;;39.41;26.50;95886.50;5096349;28;20300;-65
2022/05/20 08:29:07;;;;;;;1999.90;999.90;;;;;;;38.98;27.57;95879.94;5096144;28;20183;-65
2022/05/20 08:31:33;;;;;;;1999.90;999.90;;;;;;;39.90;25.99;95869.31;5096454;28;20184;-65
2022/05/20 08:33:59;;;;;;;1999.90;999.90;;;;;;;40.80;24.87;95871.16;5096727;28;20176;-65
2022/05/20 08:36:25;;;;;;;1999.90;999.90;;;;;;;41.41;24.17;95871.81;5096828;28;20328;-65
2022/05/20 08:38:50;;;;;;;1999.90;999.90;;;;;;;40.60;24.62;95866.63;5096751;28;20237;-63
2022/05/20 08:41:23;;;;;;;1999.90;999.90;;;;;;;41.21;24.31;95867.34;5096080;28;20176;-59
2022/05/20 08:43:50;;;;;;;1999.90;999.90;;;;;;;40.78;24.76;95866.03;5096502;28;20278;-59
2022/05/20 08:46:17;;;;;;;1999.90;999.90;;;;;;;39.92;26.01;95863.75;5096086;28;20200;-59
2022/05/20 08:48:50;;;;;;;1999.90;999.90;;;;;;;40.33;26.04;95855.13;5096089;28;20203;-60
2022/05/20 08:51:15;;;;;;;1999.90;999.90;;;;;;;39.92;26.37;95855.16;5096227;28;20184;-58
2022/05/20 08:53:47;;;;;;;1999.90;999.90;;;;;;;40.14;26.25;95854.16;5096210;28;20175;-58
2022/05/20 08:56:17;;;;;;;1999.90;999.90;;;;;;;40.07;25.65;95855.00;5095995;28;20184;-63
2022/05/20 08:58:56;;;;;;;1999.90;999.90;;;;;;;40.48;25.16;95843.47;5096416;28;20175;-61
2022/05/20 09:01:27;;;;;;;1999.90;999.90;;;;;;;39.80;26.44;95848.44;5095878;28;20190;-60
2022/05/20 09:03:53;;;;;;;1999.90;999.90;;;;;;;40.36;26.82;95847.44;5096233;28;20256;-60
2022/05/20 09:06:18;;;;;;;1999.90;999.90;;;;;;;40.89;25.05;95844.69;5095765;28;20200;-60
2022/05/20 09:08:45;;;;;;;1999.90;999.90;;;;;;;39.40;27.45;95833.50;5095946;28;20209;-61
2022/05/20 09:11:15;;;;;;;1999.90;999.90;;;;;;;40.10;26.23;95848.88;5095536;28;20278;-60
2022/05/20 09:16:30;;;;;;;1999.90;999.90;;;;;;;39.69;27.12;95837.44;5113943;28;20255;-59
2022/05/20 09:19:24;;;;;;;1999.90;999.90;;;;;;;39.75;26.04;95835.09;5113686;28;20251;-59
2022/05/20 09:22:24;;;;;;;1999.90;999.90;;;;;;;39.88;26.26;95826.19;5095902;28;20279;-59
2022/05/20 09:24:49;;;;;;;1999.90;999.90;;;;;;;40.27;26.52;95828.09;5081164;28;20199;-59
2022/05/20 09:27:27;;;;;;;1999.90;999.90;;;;;;;40.70;26.08;95818.72;5095401;28;20200;-58
2022/05/20 09:30:14;;;;;;;1999.90;999.90;;;;;;;40.97;25.55;95825.25;5097079;28;20176;-58
2022/05/20 09:32:47;;;;;;;1999.90;999.90;;;;;;;39.97;26.34;95816.97;5099352;28;20211;-58
2022/05/20 09:35:19;;;;;;;1999.90;999.90;;;;;;;39.84;27.26;95823.00;5099048;28;20253;-58
2022/05/20 09:37:47;;;;;;;1999.90;999.90;;;;;;;38.53;27.60;95810.81;5098734;28;20195;-57
2022/05/20 09:40:36;;;;;;;1999.90;999.90;;;;;;;38.72;27.55;95803.28;5098646;28;20176;-56
2022/05/20 09:43:25;;;;;;;1999.90;999.90;;;;;;;39.18;26.94;95798.00;5116819;28;20204;-56
2022/05/20 09:45:51;;;;;;;1999.90;999.90;;;;;;;39.13;27.40;95799.75;5098561;28;20191;-56
2022/05/20 09:48:31;;;;;;;1999.90;999.90;;;;;;;38.91;27.30;95800.66;5098669;28;20246;-56
2022/05/20 09:51:15;;;;;;;1999.90;999.90;;;;;;;39.13;27.87;95799.75;5098701;28;20266;-56
2022/05/20 09:53:43;;;;;;;1999.90;999.90;;;;;;;38.63;27.62;95792.44;5098510;28;20200;-64
2022/05/20 09:56:21;;;;;;;1999.90;999.90;;;;;;;38.54;28.18;95789.47;5098875;28;20191;-66
2022/05/20 09:59:13;;;;;;;1999.90;999.90;;;;;;;39.13;26.61;95787.56;5098749;28;20179;-65
2022/05/20 10:01:40;;;;;;;1999.90;999.90;;;;;;;39.39;26.79;95783.38;5116725;28;20180;-65
2022/05/20 10:04:11;;;;;;;1999.90;999.90;;;;;;;39.11;26.58;95784.53;5098971;28;20183;-66
2022/05/20 10:06:46;;;;;;;1999.90;999.90;;;;;;;38.94;26.64;95770.94;5098747;28;20231;-66
2022/05/20 10:09:45;;;;;;;1999.90;999.90;;;;;;;39.33;27.25;95774.22;5098593;28;20187;-66
2022/05/20 10:12:33;;;;;;;1999.90;999.90;;;;;;;39.74;26.92;95764.88;5098831;28;20186;-60
2022/05/20 10:15:07;;;;;;;1999.90;999.90;;;;;;;40.17;25.74;95767.06;5098547;28;20282;-60
2022/05/20 10:17:46;;;;;;;1999.90;999.90;;;;;;;40.81;24.76;95767.34;5098799;28;20238;-60
2022/05/20 10:20:15;;;;;;;1999.90;999.90;;;;;;;41.04;23.99;95772.78;5098003;28;20184;-60
2022/05/20 10:22:57;;;;;;;1999.90;999.90;;;;;;;40.84;24.39;95751.06;5098447;28;20192;-60
2022/05/20 10:25:35;;;;;;;1999.90;999.90;;;;;;;40.34;24.65;95759.22;5098378;28;20180;-60
2022/05/20 10:34:07;;;;;;;1999.90;999.90;;;;;;;40.02;25.36;95750.06;5084801;28;20183;-55
2022/05/20 10:36:50;;;;;;;1999.90;999.90;;;;;;;40.98;23.68;95740.72;5097898;28;20261;-56
2022/05/20 10:39:33;;;;;;;1999.90;999.90;;;;;;;40.88;23.77;95732.06;5098301;28;20304;-56
2022/05/20 10:42:23;;;;;;;1999.90;999.90;;;;;;;41.47;23.58;95735.31;5097296;28;20205;-55
2022/05/20 10:48:37;;;;;;;1999.90;999.90;;;;;;;40.99;23.29;95725.00;5116263;28;20270;-61
2022/05/20 10:51:37;;;;;;;1999.90;999.90;;;;;;;40.14;23.95;95728.16;5097899;28;20184;-58
2022/05/20 10:54:27;;;;;;;1999.90;999.90;;;;;;;39.46;24.97;95713.88;5097946;28;20192;-59
2022/05/20 10:57:03;;;;;;;1999.90;999.90;;;;;;;40.15;24.53;95712.47;5115621;28;20179;-59
2022/05/20 10:59:34;;;;;;;1999.90;999.90;;;;;;;40.63;24.09;95710.69;5097808;28;20182;-59
2022/05/20 11:02:28;;;;;;;1999.90;999.90;;;;;;;40.09;23.54;95706.25;5097730;28;20186;-59
2022/05/20 11:05:26;;;;;;;1999.90;999.90;;;;;;;39.66;24.55;95706.97;5097614;28;20278;-56
2022/05/20 11:08:09;;;;;;;1999.90;999.90;;;;;;;39.66;24.85;95706.97;5097326;28;20179;-56
2022/05/20 11:11:03;;;;;;;1999.90;999.90;;;;;;;40.54;23.86;95702.78;5097942;28;20186;-64
2022/05/20 11:14:01;;;;;;;1999.90;999.90;;;;;;;40.40;23.51;95698.78;5097468;28;20316;-64
2022/05/20 11:16:29;;;;;;;1999.90;999.90;;;;;;;39.50;24.52;95697.78;5097916;28;20212;-63
2022/05/20 11:19:33;;;;;;;1999.90;999.90;;;;;;;39.65;24.76;95688.28;5097157;28;20192;-63
2022/05/20 11:22:02;;;;;;;1999.90;999.90;;;;;;;39.09;26.20;95690.75;5086617;28;20198;-64
2022/05/20 11:24:45;;;;;;;1999.90;999.90;;;;;;;39.05;25.37;95698.22;5097283;28;20188;-55
2022/05/20 11:27:52;;;;;;;1999.90;999.90;;;;;;;38.11;25.63;95679.25;5097518;28;20248;-54
2022/05/20 11:30:56;;;;;;;1999.90;999.90;;;;;;;37.59;25.95;95680.22;5096433;28;20196;-53
2022/05/20 11:33:40;;;;;;;1999.90;999.90;;;;;;;37.48;26.92;95674.94;5097281;28;20179;-55
2022/05/20 11:36:34;;;;;;;1999.90;999.90;;;;;;;35.94;27.78;95674.53;5097044;28;20184;-55
2022/05/20 11:39:18;;;;;;;1999.90;999.90;;;;;;;35.20;28.71;95670.72;5096677;28;20191;-55
2022/05/20 11:41:57;;;;;;;1999.90;999.90;;;;;;;35.37;28.48;95667.44;5096961;28;20182;-61